ADDS METAR Data INFO
IDs: Format: Raw Decoded Include TAF

Data at: 0212 UTC 17 Aug 2018

PARC 170156Z AUTO 16014G20KT 10SM FEW075 BKN100 12/04 A2948 RMK AO2 SLPNO T01170044
PARC 162256Z AUTO 16008G16KT 10SM OVC043 12/03 A2952 RMK AO2 SLP024 T01170033
PARC 162156Z AUTO 18011KT 10SM SCT055 OVC100 11/03 A2952 RMK AO2 SLP027 T01060028
PARC 162056Z AUTO 17010KT 10SM OVC065 10/03 A2953 RMK AO2 SLP029 T01000028 53005
PARC 161756Z AUTO 19013KT 10SM OVC055 07/02 A2951 RMK AO2 SLP024 6//// T00720017 10072 20061 53001
PARC 161656Z AUTO 18015KT 10SM BKN060 BKN110 07/01 A2951 RMK AO2 SLP023 T00670011
PARC 161556Z AUTO 18013KT 10SM SCT060 SCT120 06/01 A2951 RMK AO2 SLP023 T00610011
PARC 161541Z AUTO 18013KT 3/4SM HZ SCT060 06/01 A2951 RMK AO2
PARC 161456Z AUTO 19013KT 10SM FEW060 06/01 A2951 RMK AO2 SLP023 T00610011 57006
PARC 161256Z AUTO 18012KT 10SM CLR 06/02 A2953 RMK AO2 SLP029 T00610017
PARC 161156Z AUTO 18012KT 10SM FEW100 07/02 A2953 RMK AO2 SLP028 60000 T00670017 10089 20067 56002
PARC 160956Z AUTO 19013KT 10SM FEW100 07/02 A2953 RMK AO2 SLP028 T00720022
PARC 160756Z AUTO 18013KT 10SM SCT075 OVC110 08/02 A2954 RMK AO2 RAE12 SLP032 P0000 T00830022
PARC 160656Z AUTO 17011KT 10SM -RA SCT065 BKN080 OVC100 08/03 A2955 RMK AO2 RAB40 SLP037 P0000 T00830028
PARC 160556Z AUTO 19007KT 10SM BKN120 09/02 A2955 RMK AO2 SLP037 T00890022 10111 20089 55004
PARC 160456Z AUTO 17010KT 10SM SCT100 09/02 A2955 RMK AO2 SLP038 T00890017
PARC 160416Z AUTO 16010KT 2 1/2SM HZ FEW090 SCT110 09/02 A2955 RMK AO2
PARC 160356Z AUTO 17010KT 9SM BKN095 09/01 A2955 RMK AO2 SLP040 T00940011
PARC 160256Z AUTO 18015KT 10SM 10/01 A2956 RMK AO2 SLP044 T01000006 56004
PARC 160156Z AUTO 18016KT 10SM OVC080 10/M01 A2957 RMK AO2 SLP045 T01001006
PARC 160056Z AUTO 18012G21KT 10SM OVC090 11/M01 A2957 RMK AO2 SLP044 T01061006
PARC 152356Z AUTO 17017G23KT 10SM OVC055 11/M01 A2958 RMK AO2 SLP046 T01111011 10117 20067 56016
PARC 152256Z AUTO 18015G23KT 10SM SCT049 BKN120 11/M01 A2959 RMK AO2 SLP052 T01111006
PARC 152156Z AUTO 17011G17KT 10SM BKN047 11/M01 A2961 RMK AO2 SLP057 T01111006
PARC 152056Z AUTO 19015KT 10SM OVC045 10/M01 A2962 RMK AO2 SLP063 T01001011 58023
PARC 151856Z AUTO 17016G20KT 10SM CLR 08/M01 A2968 RMK AO2 SLP082 T00781006
PARC 151756Z AUTO 19014KT 10SM CLR 07/M01 A2970 RMK AO2 SLP090 T00671006 10067 20033 58017
PARC 151656Z AUTO 19007KT 10SM CLR 04/M01 A2972 RMK AO2 SLP101 T00441011
PARC 151556Z AUTO 19011KT 10SM CLR 04/M02 A2973 RMK AO2 SLP104 T00391022
PARC 151456Z AUTO VRB03KT 10SM FEW044 03/M02 A2975 RMK AO2 SLP111 T00331017 58005